Pointe Du Raz, France

11:32 PM CEST on August 24, 2016 (GMT +0200)
Rue des Thoniers | | Change Station

Elev 7 ft 48.02 °N, 4.53 °W | Updated 12 seconds ago

Clear
Clear
63.3 °F
Feels Like 63.3 °F
N
0.0
Wind Variable Wind from East
Gusts 0.0 mph

Today
High -- | Low -- °F
--% Chance of Precip.
Yesterday
High -- | Low -- °F
Precip. -- in
Pressure 30.04 in
Visibility -9999.0 miles
Clouds
Dew Point 60 °F
Humidity 90%
Rainfall 0.07 in
Snow Depth Not available.
7:26 AM 9:15 PM
Waning Gibbous, 53% visible
METAR LFRL 242100Z AUTO 05008KT CAVOK 17/15 Q1017
Pressure 30.04 in
Visibility -9999.0 miles
Clouds
Dew Point 60 °F
Humidity 90%
Rainfall 0.07 in
Snow Depth Not available.
7:26 AM 9:15 PM
Waning Gibbous, 53% visible
METAR LFRL 242100Z AUTO 05008KT CAVOK 17/15 Q1017

10-Day Weather Forecast

×

Almanac

Astronomy

Aug. 24, 2016 Rise Set
Actual Time
Civil Twilight
Nautical Twilight
Astronomical Twilight
Moon
Length of Visible Light
Length of Day
Tomorrow will be .
, % of the Moon is Illuminated

Today's Extremes

Country Highs Country Lows

Community

WunderPhotos

Upload Photos

1,934,720 photos uploaded!

WunderBlog® & News

Nearby

Air Quality

  Air Quality AQ Index Pollutant
Not available.

Snow Depth

Station Depth Elevation

Earthquake Activity

City Distance Mag. Time & Date
Minimum magnitude displayed is 2.5.

Coastal Water Temperatures

Place Temperature

Stations

Nearby Weather Stations

Station Location Temp. Windchill Dew Point Humidity Wind Precip. Elev Updated Type